sensor_id;sensor_type;location;lat;lon;timestamp;P1;durP1;ratioP1;P2;durP2;ratioP2
36475;SDS011;56615;42.682;23.364;2023-02-01T00:02:01;9.68;;;5.43;;
36475;SDS011;56615;42.682;23.364;2023-02-01T00:04:27;9.75;;;5.60;;
36475;SDS011;56615;42.682;23.364;2023-02-01T00:06:52;12.85;;;7.40;;
36475;SDS011;56615;42.682;23.364;2023-02-01T00:09:18;13.82;;;8.02;;
36475;SDS011;56615;42.682;23.364;2023-02-01T00:11:43;15.15;;;8.68;;
36475;SDS011;56615;42.682;23.364;2023-02-01T00:14:09;14.43;;;7.70;;
36475;SDS011;56615;42.682;23.364;2023-02-01T00:16:34;24.58;;;14.57;;
36475;SDS011;56615;42.682;23.364;2023-02-01T00:19:01;14.02;;;9.00;;
36475;SDS011;56615;42.682;23.364;2023-02-01T00:21:28;12.50;;;6.45;;
36475;SDS011;56615;42.682;23.364;2023-02-01T00:23:54;10.35;;;6.57;;
36475;SDS011;56615;42.682;23.364;2023-02-01T00:26:20;10.60;;;7.47;;
36475;SDS011;56615;42.682;23.364;2023-02-01T00:28:50;9.70;;;6.13;;
36475;SDS011;56615;42.682;23.364;2023-02-01T00:31:16;10.43;;;6.10;;
36475;SDS011;56615;42.682;23.364;2023-02-01T00:33:42;11.85;;;7.88;;
36475;SDS011;56615;42.682;23.364;2023-02-01T00:36:08;11.38;;;7.25;;
36475;SDS011;56615;42.682;23.364;2023-02-01T00:38:34;14.35;;;8.35;;
36475;SDS011;56615;42.682;23.364;2023-02-01T00:41:03;17.17;;;11.23;;
36475;SDS011;56615;42.682;23.364;2023-02-01T00:43:30;15.02;;;7.95;;
36475;SDS011;56615;42.682;23.364;2023-02-01T00:45:56;13.07;;;7.30;;
36475;SDS011;56615;42.682;23.364;2023-02-01T00:48:21;25.15;;;16.50;;
36475;SDS011;56615;42.682;23.364;2023-02-01T00:50:47;13.48;;;7.80;;
36475;SDS011;56615;42.682;23.364;2023-02-01T00:53:12;11.80;;;7.05;;
36475;SDS011;56615;42.682;23.364;2023-02-01T00:55:38;13.05;;;7.10;;
36475;SDS011;56615;42.682;23.364;2023-02-01T00:58:03;9.15;;;5.60;;
36475;SDS011;56615;42.682;23.364;2023-02-01T01:00:31;8.60;;;5.53;;
36475;SDS011;56615;42.682;23.364;2023-02-01T01:02:57;10.35;;;5.78;;
36475;SDS011;56615;42.682;23.364;2023-02-01T01:05:22;9.30;;;5.35;;
36475;SDS011;56615;42.682;23.364;2023-02-01T01:07:48;9.40;;;4.90;;
36475;SDS011;56615;42.682;23.364;2023-02-01T01:10:14;7.88;;;4.85;;
36475;SDS011;56615;42.682;23.364;2023-02-01T01:12:39;9.27;;;5.15;;
36475;SDS011;56615;42.682;23.364;2023-02-01T01:15:05;12.23;;;5.90;;
36475;SDS011;56615;42.682;23.364;2023-02-01T01:17:31;10.38;;;5.15;;
36475;SDS011;56615;42.682;23.364;2023-02-01T01:19:57;9.35;;;4.80;;
36475;SDS011;56615;42.682;23.364;2023-02-01T01:22:22;10.45;;;4.53;;
36475;SDS011;56615;42.682;23.364;2023-02-01T01:24:48;9.10;;;4.60;;
36475;SDS011;56615;42.682;23.364;2023-02-01T01:27:13;7.97;;;4.40;;
36475;SDS011;56615;42.682;23.364;2023-02-01T01:29:40;8.68;;;4.75;;
36475;SDS011;56615;42.682;23.364;2023-02-01T01:32:12;6.85;;;4.15;;
36475;SDS011;56615;42.682;23.364;2023-02-01T01:34:37;10.25;;;4.50;;
36475;SDS011;56615;42.682;23.364;2023-02-01T01:37:03;8.57;;;4.35;;
36475;SDS011;56615;42.682;23.364;2023-02-01T01:39:29;8.75;;;4.60;;
36475;SDS011;56615;42.682;23.364;2023-02-01T01:41:54;6.82;;;4.18;;
36475;SDS011;56615;42.682;23.364;2023-02-01T01:47:23;8.98;;;4.15;;
36475;SDS011;56615;42.682;23.364;2023-02-01T01:49:50;8.07;;;4.00;;
36475;SDS011;56615;42.682;23.364;2023-02-01T01:52:15;7.30;;;3.88;;
36475;SDS011;56615;42.682;23.364;2023-02-01T01:54:42;6.90;;;3.70;;
36475;SDS011;56615;42.682;23.364;2023-02-01T01:57:11;10.25;;;3.95;;
36475;SDS011;56615;42.682;23.364;2023-02-01T01:59:40;6.50;;;3.53;;
36475;SDS011;56615;42.682;23.364;2023-02-01T02:02:07;8.02;;;3.80;;
36475;SDS011;56615;42.682;23.364;2023-02-01T02:04:32;6.65;;;3.88;;
36475;SDS011;56615;42.682;23.364;2023-02-01T02:07:05;8.82;;;4.10;;
36475;SDS011;56615;42.682;23.364;2023-02-01T02:09:40;7.45;;;3.88;;
36475;SDS011;56615;42.682;23.364;2023-02-01T02:12:07;6.57;;;3.58;;
36475;SDS011;56615;42.682;23.364;2023-02-01T02:14:33;9.00;;;3.90;;
36475;SDS011;56615;42.682;23.364;2023-02-01T02:17:42;8.02;;;3.95;;
36475;SDS011;56615;42.682;23.364;2023-02-01T02:20:02;8.88;;;4.57;;
36475;SDS011;56615;42.682;23.364;2023-02-01T02:37:29;7.15;;;3.95;;
36475;SDS011;56615;42.682;23.364;2023-02-01T02:40:18;7.65;;;3.67;;
36475;SDS011;56615;42.682;23.364;2023-02-01T02:48:41;7.38;;;3.67;;
36475;SDS011;56615;42.682;23.364;2023-02-01T02:51:15;8.57;;;4.22;;
36475;SDS011;56615;42.682;23.364;2023-02-01T02:54:09;9.35;;;4.10;;
36475;SDS011;56615;42.682;23.364;2023-02-01T02:56:56;8.18;;;3.83;;
36475;SDS011;56615;42.682;23.364;2023-02-01T02:59:43;7.80;;;4.05;;
36475;SDS011;56615;42.682;23.364;2023-02-01T03:02:28;10.13;;;4.43;;
36475;SDS011;56615;42.682;23.364;2023-02-01T03:05:12;10.82;;;4.10;;
36475;SDS011;56615;42.682;23.364;2023-02-01T03:13:10;8.43;;;3.97;;
36475;SDS011;56615;42.682;23.364;2023-02-01T03:15:40;6.03;;;3.78;;
36475;SDS011;56615;42.682;23.364;2023-02-01T03:18:13;8.55;;;3.80;;
36475;SDS011;56615;42.682;23.364;2023-02-01T03:20:43;6.47;;;3.38;;
36475;SDS011;56615;42.682;23.364;2023-02-01T03:23:10;6.95;;;3.63;;
36475;SDS011;56615;42.682;23.364;2023-02-01T03:25:39;6.90;;;3.60;;
36475;SDS011;56615;42.682;23.364;2023-02-01T03:28:06;9.15;;;3.40;;
36475;SDS011;56615;42.682;23.364;2023-02-01T03:30:37;10.07;;;3.80;;
36475;SDS011;56615;42.682;23.364;2023-02-01T03:33:05;10.10;;;3.55;;
36475;SDS011;56615;42.682;23.364;2023-02-01T03:35:45;9.52;;;3.30;;
36475;SDS011;56615;42.682;23.364;2023-02-01T03:38:30;10.00;;;3.83;;
36475;SDS011;56615;42.682;23.364;2023-02-01T03:43:26;8.00;;;3.50;;
36475;SDS011;56615;42.682;23.364;2023-02-01T03:45:54;8.52;;;3.78;;
36475;SDS011;56615;42.682;23.364;2023-02-01T03:48:23;7.97;;;3.67;;
36475;SDS011;56615;42.682;23.364;2023-02-01T03:50:49;8.98;;;3.42;;
36475;SDS011;56615;42.682;23.364;2023-02-01T03:53:18;7.45;;;3.42;;
36475;SDS011;56615;42.682;23.364;2023-02-01T03:55:45;8.80;;;3.50;;
36475;SDS011;56615;42.682;23.364;2023-02-01T04:00:42;6.43;;;3.42;;
36475;SDS011;56615;42.682;23.364;2023-02-01T04:03:09;7.45;;;3.30;;
36475;SDS011;56615;42.682;23.364;2023-02-01T04:05:35;6.63;;;3.13;;
36475;SDS011;56615;42.682;23.364;2023-02-01T04:08:01;6.80;;;3.35;;
36475;SDS011;56615;42.682;23.364;2023-02-01T04:10:27;6.90;;;3.35;;
36475;SDS011;56615;42.682;23.364;2023-02-01T04:12:53;8.82;;;3.28;;
36475;SDS011;56615;42.682;23.364;2023-02-01T04:15:18;6.53;;;3.17;;
36475;SDS011;56615;42.682;23.364;2023-02-01T04:17:44;8.63;;;3.20;;
36475;SDS011;56615;42.682;23.364;2023-02-01T04:20:09;11.63;;;3.50;;
36475;SDS011;56615;42.682;23.364;2023-02-01T04:22:35;5.90;;;3.20;;
36475;SDS011;56615;42.682;23.364;2023-02-01T04:25:02;7.47;;;3.28;;
36475;SDS011;56615;42.682;23.364;2023-02-01T04:27:35;7.90;;;3.58;;
36475;SDS011;56615;42.682;23.364;2023-02-01T04:30:01;6.85;;;3.40;;
36475;SDS011;56615;42.682;23.364;2023-02-01T04:32:27;9.02;;;3.33;;
36475;SDS011;56615;42.682;23.364;2023-02-01T04:34:52;8.52;;;3.50;;
36475;SDS011;56615;42.682;23.364;2023-02-01T04:37:17;7.72;;;3.58;;
36475;SDS011;56615;42.682;23.364;2023-02-01T04:39:43;7.40;;;3.55;;
36475;SDS011;56615;42.682;23.364;2023-02-01T04:42:08;7.28;;;3.75;;
36475;SDS011;56615;42.682;23.364;2023-02-01T04:44:33;7.22;;;3.50;;
36475;SDS011;56615;42.682;23.364;2023-02-01T04:47:02;6.50;;;3.55;;
36475;SDS011;56615;42.682;23.364;2023-02-01T04:49:29;7.13;;;3.80;;
36475;SDS011;56615;42.682;23.364;2023-02-01T04:51:54;7.93;;;3.85;;
36475;SDS011;56615;42.682;23.364;2023-02-01T04:54:20;11.35;;;3.92;;
36475;SDS011;56615;42.682;23.364;2023-02-01T04:56:45;8.77;;;4.72;;
36475;SDS011;56615;42.682;23.364;2023-02-01T04:59:11;7.63;;;3.97;;
36475;SDS011;56615;42.682;23.364;2023-02-01T05:01:37;9.20;;;4.05;;
36475;SDS011;56615;42.682;23.364;2023-02-01T05:04:02;8.82;;;4.03;;
36475;SDS011;56615;42.682;23.364;2023-02-01T05:06:28;8.57;;;4.05;;
36475;SDS011;56615;42.682;23.364;2023-02-01T05:08:53;8.65;;;4.57;;
36475;SDS011;56615;42.682;23.364;2023-02-01T05:11:19;9.23;;;4.00;;
36475;SDS011;56615;42.682;23.364;2023-02-01T05:14:02;11.75;;;4.63;;
36475;SDS011;56615;42.682;23.364;2023-02-01T05:16:28;10.52;;;4.32;;
36475;SDS011;56615;42.682;23.364;2023-02-01T05:18:53;11.80;;;4.55;;
36475;SDS011;56615;42.682;23.364;2023-02-01T05:21:19;10.45;;;5.07;;
36475;SDS011;56615;42.682;23.364;2023-02-01T05:23:45;15.10;;;4.78;;
36475;SDS011;56615;42.682;23.364;2023-02-01T05:26:29;11.73;;;5.00;;
36475;SDS011;56615;42.682;23.364;2023-02-01T05:28:54;9.95;;;4.68;;
36475;SDS011;56615;42.682;23.364;2023-02-01T05:31:19;11.07;;;4.80;;
36475;SDS011;56615;42.682;23.364;2023-02-01T05:33:45;9.13;;;4.15;;
36475;SDS011;56615;42.682;23.364;2023-02-01T05:36:10;9.98;;;5.20;;
36475;SDS011;56615;42.682;23.364;2023-02-01T05:38:37;10.52;;;5.03;;
36475;SDS011;56615;42.682;23.364;2023-02-01T05:41:02;13.13;;;5.60;;
36475;SDS011;56615;42.682;23.364;2023-02-01T05:43:28;9.13;;;4.95;;
36475;SDS011;56615;42.682;23.364;2023-02-01T05:45:53;11.65;;;5.28;;
36475;SDS011;56615;42.682;23.364;2023-02-01T05:48:19;9.38;;;5.13;;
36475;SDS011;56615;42.682;23.364;2023-02-01T05:50:44;9.88;;;4.63;;
36475;SDS011;56615;42.682;23.364;2023-02-01T05:53:10;9.10;;;4.80;;
36475;SDS011;56615;42.682;23.364;2023-02-01T05:55:36;9.40;;;4.90;;
36475;SDS011;56615;42.682;23.364;2023-02-01T05:58:02;12.60;;;4.82;;
36475;SDS011;56615;42.682;23.364;2023-02-01T06:00:27;11.38;;;5.07;;
36475;SDS011;56615;42.682;23.364;2023-02-01T06:02:53;11.45;;;5.40;;
36475;SDS011;56615;42.682;23.364;2023-02-01T06:05:18;9.43;;;5.00;;
36475;SDS011;56615;42.682;23.364;2023-02-01T06:07:44;10.35;;;5.07;;
36475;SDS011;56615;42.682;23.364;2023-02-01T06:10:09;11.63;;;4.57;;
36475;SDS011;56615;42.682;23.364;2023-02-01T06:12:35;10.23;;;4.50;;
36475;SDS011;56615;42.682;23.364;2023-02-01T06:15:00;10.50;;;4.88;;
36475;SDS011;56615;42.682;23.364;2023-02-01T06:17:26;112.40;;;59.17;;
36475;SDS011;56615;42.682;23.364;2023-02-01T06:19:51;125.93;;;56.80;;
36475;SDS011;56615;42.682;23.364;2023-02-01T06:22:16;42.25;;;19.65;;
36475;SDS011;56615;42.682;23.364;2023-02-01T06:24:42;17.13;;;6.75;;
36475;SDS011;56615;42.682;23.364;2023-02-01T06:27:08;13.00;;;5.78;;
36475;SDS011;56615;42.682;23.364;2023-02-01T06:29:34;13.88;;;5.10;;
36475;SDS011;56615;42.682;23.364;2023-02-01T06:32:00;13.23;;;7.43;;
36475;SDS011;56615;42.682;23.364;2023-02-01T06:34:25;11.43;;;6.10;;
36475;SDS011;56615;42.682;23.364;2023-02-01T06:36:50;15.15;;;6.00;;
36475;SDS011;56615;42.682;23.364;2023-02-01T06:39:16;20.05;;;8.07;;
36475;SDS011;56615;42.682;23.364;2023-02-01T06:41:42;14.98;;;8.23;;
36475;SDS011;56615;42.682;23.364;2023-02-01T06:44:10;17.48;;;8.55;;
36475;SDS011;56615;42.682;23.364;2023-02-01T06:46:36;11.25;;;4.95;;
36475;SDS011;56615;42.682;23.364;2023-02-01T06:49:01;14.27;;;5.00;;
36475;SDS011;56615;42.682;23.364;2023-02-01T06:51:27;12.98;;;5.15;;
36475;SDS011;56615;42.682;23.364;2023-02-01T06:53:54;10.82;;;4.50;;
36475;SDS011;56615;42.682;23.364;2023-02-01T06:56:20;11.55;;;5.10;;
36475;SDS011;56615;42.682;23.364;2023-02-01T06:58:46;9.55;;;4.20;;
36475;SDS011;56615;42.682;23.364;2023-02-01T07:01:11;11.60;;;4.50;;
36475;SDS011;56615;42.682;23.364;2023-02-01T07:03:37;11.23;;;4.68;;
36475;SDS011;56615;42.682;23.364;2023-02-01T07:06:03;14.35;;;7.53;;
36475;SDS011;56615;42.682;23.364;2023-02-01T07:08:30;11.27;;;5.07;;
36475;SDS011;56615;42.682;23.364;2023-02-01T07:10:56;11.80;;;4.90;;
36475;SDS011;56615;42.682;23.364;2023-02-01T07:13:21;13.52;;;4.38;;
36475;SDS011;56615;42.682;23.364;2023-02-01T07:15:47;10.68;;;5.00;;
36475;SDS011;56615;42.682;23.364;2023-02-01T07:18:12;15.15;;;4.70;;
36475;SDS011;56615;42.682;23.364;2023-02-01T07:20:41;11.77;;;5.30;;
36475;SDS011;56615;42.682;23.364;2023-02-01T07:23:07;9.40;;;5.00;;
36475;SDS011;56615;42.682;23.364;2023-02-01T07:25:34;10.35;;;4.70;;
36475;SDS011;56615;42.682;23.364;2023-02-01T07:28:00;10.68;;;5.03;;
36475;SDS011;56615;42.682;23.364;2023-02-01T07:30:25;8.88;;;4.43;;
36475;SDS011;56615;42.682;23.364;2023-02-01T07:32:51;14.65;;;4.25;;
36475;SDS011;56615;42.682;23.364;2023-02-01T07:35:16;14.40;;;4.63;;
36475;SDS011;56615;42.682;23.364;2023-02-01T07:37:41;8.95;;;4.07;;
36475;SDS011;56615;42.682;23.364;2023-02-01T07:40:07;8.45;;;4.30;;
36475;SDS011;56615;42.682;23.364;2023-02-01T07:42:33;13.35;;;4.88;;
36475;SDS011;56615;42.682;23.364;2023-02-01T07:44:59;9.88;;;4.30;;
36475;SDS011;56615;42.682;23.364;2023-02-01T07:47:24;11.95;;;5.15;;
36475;SDS011;56615;42.682;23.364;2023-02-01T07:49:54;8.82;;;4.13;;
36475;SDS011;56615;42.682;23.364;2023-02-01T07:52:20;8.98;;;4.15;;
36475;SDS011;56615;42.682;23.364;2023-02-01T07:54:45;10.07;;;3.88;;
36475;SDS011;56615;42.682;23.364;2023-02-01T07:57:11;8.18;;;3.80;;
36475;SDS011;56615;42.682;23.364;2023-02-01T07:59:37;13.35;;;6.88;;
36475;SDS011;56615;42.682;23.364;2023-02-01T08:02:22;17.25;;;10.27;;
36475;SDS011;56615;42.682;23.364;2023-02-01T08:04:47;10.43;;;5.00;;
36475;SDS011;56615;42.682;23.364;2023-02-01T08:07:13;8.77;;;4.65;;
36475;SDS011;56615;42.682;23.364;2023-02-01T08:09:40;10.98;;;6.13;;
36475;SDS011;56615;42.682;23.364;2023-02-01T08:12:05;12.38;;;5.88;;
36475;SDS011;56615;42.682;23.364;2023-02-01T08:14:31;9.43;;;4.75;;
36475;SDS011;56615;42.682;23.364;2023-02-01T08:16:56;12.52;;;4.45;;
36475;SDS011;56615;42.682;23.364;2023-02-01T08:19:21;10.52;;;4.53;;
36475;SDS011;56615;42.682;23.364;2023-02-01T08:21:47;6.55;;;3.55;;
36475;SDS011;56615;42.682;23.364;2023-02-01T08:24:13;8.05;;;3.70;;
36475;SDS011;56615;42.682;23.364;2023-02-01T08:26:39;12.43;;;4.00;;
36475;SDS011;56615;42.682;23.364;2023-02-01T08:29:05;11.30;;;4.68;;
36475;SDS011;56615;42.682;23.364;2023-02-01T08:31:31;9.05;;;3.97;;
36475;SDS011;56615;42.682;23.364;2023-02-01T08:33:58;9.27;;;3.78;;
36475;SDS011;56615;42.682;23.364;2023-02-01T08:36:25;13.15;;;4.50;;
36475;SDS011;56615;42.682;23.364;2023-02-01T08:38:52;9.48;;;3.70;;
36475;SDS011;56615;42.682;23.364;2023-02-01T08:41:18;9.07;;;4.00;;
36475;SDS011;56615;42.682;23.364;2023-02-01T08:43:47;12.32;;;4.00;;
36475;SDS011;56615;42.682;23.364;2023-02-01T08:46:13;9.82;;;4.03;;
36475;SDS011;56615;42.682;23.364;2023-02-01T08:48:39;8.57;;;4.10;;
36475;SDS011;56615;42.682;23.364;2023-02-01T08:51:05;8.13;;;3.25;;
36475;SDS011;56615;42.682;23.364;2023-02-01T08:53:32;9.82;;;3.80;;
36475;SDS011;56615;42.682;23.364;2023-02-01T08:55:57;9.60;;;4.00;;
36475;SDS011;56615;42.682;23.364;2023-02-01T08:58:24;8.07;;;3.20;;
36475;SDS011;56615;42.682;23.364;2023-02-01T09:00:49;8.98;;;3.33;;
36475;SDS011;56615;42.682;23.364;2023-02-01T09:03:15;9.48;;;3.75;;
36475;SDS011;56615;42.682;23.364;2023-02-01T09:05:41;7.78;;;2.90;;
36475;SDS011;56615;42.682;23.364;2023-02-01T09:08:06;6.60;;;2.88;;
36475;SDS011;56615;42.682;23.364;2023-02-01T09:10:33;11.00;;;3.30;;
36475;SDS011;56615;42.682;23.364;2023-02-01T09:12:58;10.18;;;3.13;;
36475;SDS011;56615;42.682;23.364;2023-02-01T09:15:24;11.45;;;4.10;;
36475;SDS011;56615;42.682;23.364;2023-02-01T09:17:49;9.73;;;3.22;;
36475;SDS011;56615;42.682;23.364;2023-02-01T09:20:15;8.23;;;3.35;;
36475;SDS011;56615;42.682;23.364;2023-02-01T09:22:41;7.38;;;3.35;;
36475;SDS011;56615;42.682;23.364;2023-02-01T09:25:07;7.88;;;3.10;;
36475;SDS011;56615;42.682;23.364;2023-02-01T09:27:33;8.73;;;3.47;;
36475;SDS011;56615;42.682;23.364;2023-02-01T09:29:58;7.70;;;3.45;;
36475;SDS011;56615;42.682;23.364;2023-02-01T09:32:24;7.93;;;3.17;;
36475;SDS011;56615;42.682;23.364;2023-02-01T09:34:50;9.77;;;3.72;;
36475;SDS011;56615;42.682;23.364;2023-02-01T09:37:16;11.63;;;3.05;;
36475;SDS011;56615;42.682;23.364;2023-02-01T09:39:42;9.05;;;3.13;;
36475;SDS011;56615;42.682;23.364;2023-02-01T09:47:35;10.70;;;3.38;;
36475;SDS011;56615;42.682;23.364;2023-02-01T09:50:12;8.05;;;3.30;;
36475;SDS011;56615;42.682;23.364;2023-02-01T09:53:05;8.68;;;3.10;;
36475;SDS011;56615;42.682;23.364;2023-02-01T09:55:37;10.93;;;3.20;;
36475;SDS011;56615;42.682;23.364;2023-02-01T09:58:20;7.97;;;3.10;;
36475;SDS011;56615;42.682;23.364;2023-02-01T10:00:52;9.35;;;3.20;;
36475;SDS011;56615;42.682;23.364;2023-02-01T10:03:19;8.82;;;3.22;;
36475;SDS011;56615;42.682;23.364;2023-02-01T10:08:55;10.27;;;3.10;;
36475;SDS011;56615;42.682;23.364;2023-02-01T10:11:58;8.82;;;2.92;;
36475;SDS011;56615;42.682;23.364;2023-02-01T10:23:16;10.80;;;3.55;;
36475;SDS011;56615;42.682;23.364;2023-02-01T10:28:37;7.07;;;3.03;;
36475;SDS011;56615;42.682;23.364;2023-02-01T10:31:03;7.05;;;2.75;;
36475;SDS011;56615;42.682;23.364;2023-02-01T10:33:34;7.75;;;3.17;;
36475;SDS011;56615;42.682;23.364;2023-02-01T10:36:13;5.65;;;2.42;;
36475;SDS011;56615;42.682;23.364;2023-02-01T10:38:47;6.32;;;2.80;;
36475;SDS011;56615;42.682;23.364;2023-02-01T10:41:17;7.00;;;2.80;;
36475;SDS011;56615;42.682;23.364;2023-02-01T10:43:51;8.68;;;3.20;;
36475;SDS011;56615;42.682;23.364;2023-02-01T10:46:19;7.05;;;2.65;;
36475;SDS011;56615;42.682;23.364;2023-02-01T10:48:45;9.38;;;2.90;;
36475;SDS011;56615;42.682;23.364;2023-02-01T10:51:22;9.90;;;3.97;;
36475;SDS011;56615;42.682;23.364;2023-02-01T10:53:50;9.73;;;3.63;;
36475;SDS011;56615;42.682;23.364;2023-02-01T10:56:22;9.57;;;4.40;;
36475;SDS011;56615;42.682;23.364;2023-02-01T10:58:49;17.17;;;8.48;;
36475;SDS011;56615;42.682;23.364;2023-02-01T11:01:19;13.13;;;6.68;;
36475;SDS011;56615;42.682;23.364;2023-02-01T11:03:57;14.93;;;7.40;;
36475;SDS011;56615;42.682;23.364;2023-02-01T11:06:30;11.32;;;3.53;;
36475;SDS011;56615;42.682;23.364;2023-02-01T11:11:45;7.00;;;3.47;;
36475;SDS011;56615;42.682;23.364;2023-02-01T11:16:49;6.70;;;2.75;;
36475;SDS011;56615;42.682;23.364;2023-02-01T11:19:16;7.13;;;3.20;;
36475;SDS011;56615;42.682;23.364;2023-02-01T11:21:43;7.82;;;3.20;;
36475;SDS011;56615;42.682;23.364;2023-02-01T11:24:33;6.18;;;2.95;;
36475;SDS011;56615;42.682;23.364;2023-02-01T11:27:00;6.63;;;3.20;;
36475;SDS011;56615;42.682;23.364;2023-02-01T11:29:37;6.22;;;3.00;;
36475;SDS011;56615;42.682;23.364;2023-02-01T11:32:04;13.45;;;7.65;;
36475;SDS011;56615;42.682;23.364;2023-02-01T11:34:37;10.00;;;4.78;;
36475;SDS011;56615;42.682;23.364;2023-02-01T11:37:04;9.93;;;5.43;;
36475;SDS011;56615;42.682;23.364;2023-02-01T11:39:31;10.23;;;5.03;;
36475;SDS011;56615;42.682;23.364;2023-02-01T11:44:38;5.53;;;2.17;;
36475;SDS011;56615;42.682;23.364;2023-02-01T11:50:00;7.50;;;2.43;;
36475;SDS011;56615;42.682;23.364;2023-02-01T11:58:17;5.43;;;2.22;;
36475;SDS011;56615;42.682;23.364;2023-02-01T12:00:53;5.47;;;2.25;;
36475;SDS011;56615;42.682;23.364;2023-02-01T12:08:35;9.27;;;4.00;;
36475;SDS011;56615;42.682;23.364;2023-02-01T12:14:14;8.00;;;2.28;;
36475;SDS011;56615;42.682;23.364;2023-02-01T12:19:45;5.88;;;2.50;;
36475;SDS011;56615;42.682;23.364;2023-02-01T12:33:21;7.72;;;2.60;;
36475;SDS011;56615;42.682;23.364;2023-02-01T12:38:26;5.40;;;2.95;;
36475;SDS011;56615;42.682;23.364;2023-02-01T12:46:22;5.38;;;2.97;;
36475;SDS011;56615;42.682;23.364;2023-02-01T12:51:29;3.72;;;2.00;;
36475;SDS011;56615;42.682;23.364;2023-02-01T12:57:00;12.98;;;4.40;;
36475;SDS011;56615;42.682;23.364;2023-02-01T12:59:40;5.15;;;2.70;;
36475;SDS011;56615;42.682;23.364;2023-02-01T13:04:49;5.97;;;2.50;;
36475;SDS011;56615;42.682;23.364;2023-02-01T13:07:19;6.43;;;2.30;;
36475;SDS011;56615;42.682;23.364;2023-02-01T13:09:57;5.63;;;2.50;;
36475;SDS011;56615;42.682;23.364;2023-02-01T13:12:49;5.07;;;2.25;;
36475;SDS011;56615;42.682;23.364;2023-02-01T13:15:19;5.50;;;2.40;;
36475;SDS011;56615;42.682;23.364;2023-02-01T13:17:48;7.90;;;2.30;;
36475;SDS011;56615;42.682;23.364;2023-02-01T13:20:28;8.65;;;3.47;;
36475;SDS011;56615;42.682;23.364;2023-02-01T13:22:59;5.85;;;2.47;;
36475;SDS011;56615;42.682;23.364;2023-02-01T13:25:41;5.03;;;2.40;;
36475;SDS011;56615;42.682;23.364;2023-02-01T13:28:16;4.85;;;2.08;;
36475;SDS011;56615;42.682;23.364;2023-02-01T13:34:06;6.15;;;2.30;;
36475;SDS011;56615;42.682;23.364;2023-02-01T13:36:47;4.15;;;2.38;;
36475;SDS011;56615;42.682;23.364;2023-02-01T13:42:31;5.68;;;2.33;;
36475;SDS011;56615;42.682;23.364;2023-02-01T13:45:15;6.47;;;3.03;;
36475;SDS011;56615;42.682;23.364;2023-02-01T13:47:43;6.03;;;2.50;;
36475;SDS011;56615;42.682;23.364;2023-02-01T13:50:20;6.90;;;2.53;;
36475;SDS011;56615;42.682;23.364;2023-02-01T13:52:54;6.53;;;2.90;;
36475;SDS011;56615;42.682;23.364;2023-02-01T13:57:49;4.28;;;2.30;;
36475;SDS011;56615;42.682;23.364;2023-02-01T14:13:49;4.22;;;2.40;;
36475;SDS011;56615;42.682;23.364;2023-02-01T14:16:15;6.72;;;2.65;;
36475;SDS011;56615;42.682;23.364;2023-02-01T14:24:02;5.00;;;2.20;;
36475;SDS011;56615;42.682;23.364;2023-02-01T14:31:59;6.40;;;2.85;;
36475;SDS011;56615;42.682;23.364;2023-02-01T14:34:50;7.85;;;3.50;;
36475;SDS011;56615;42.682;23.364;2023-02-01T14:44:48;7.05;;;3.28;;
36475;SDS011;56615;42.682;23.364;2023-02-01T14:52:47;9.25;;;3.00;;
36475;SDS011;56615;42.682;23.364;2023-02-01T14:55:30;6.78;;;3.00;;
36475;SDS011;56615;42.682;23.364;2023-02-01T14:57:59;6.30;;;2.65;;
36475;SDS011;56615;42.682;23.364;2023-02-01T15:00:27;7.78;;;2.90;;
36475;SDS011;56615;42.682;23.364;2023-02-01T15:02:55;6.13;;;2.90;;
36475;SDS011;56615;42.682;23.364;2023-02-01T15:05:37;7.10;;;3.00;;
36475;SDS011;56615;42.682;23.364;2023-02-01T15:08:05;7.65;;;3.05;;
36475;SDS011;56615;42.682;23.364;2023-02-01T15:10:52;8.15;;;2.90;;
36475;SDS011;56615;42.682;23.364;2023-02-01T15:13:19;6.68;;;2.90;;
36475;SDS011;56615;42.682;23.364;2023-02-01T15:18:26;6.80;;;2.65;;
36475;SDS011;56615;42.682;23.364;2023-02-01T15:20:58;6.88;;;2.70;;
36475;SDS011;56615;42.682;23.364;2023-02-01T15:23:24;6.00;;;2.90;;
36475;SDS011;56615;42.682;23.364;2023-02-01T15:25:50;6.20;;;2.63;;
36475;SDS011;56615;42.682;23.364;2023-02-01T15:28:16;5.50;;;2.70;;
36475;SDS011;56615;42.682;23.364;2023-02-01T15:30:52;5.63;;;2.50;;
36475;SDS011;56615;42.682;23.364;2023-02-01T15:33:28;5.32;;;2.78;;
36475;SDS011;56615;42.682;23.364;2023-02-01T15:36:39;5.47;;;2.65;;
36475;SDS011;56615;42.682;23.364;2023-02-01T15:38:43;6.78;;;3.08;;
36475;SDS011;56615;42.682;23.364;2023-02-01T15:41:19;7.95;;;3.33;;
36475;SDS011;56615;42.682;23.364;2023-02-01T15:46:36;8.45;;;3.03;;
36475;SDS011;56615;42.682;23.364;2023-02-01T15:49:04;6.32;;;3.20;;
36475;SDS011;56615;42.682;23.364;2023-02-01T15:51:30;7.65;;;3.65;;
36475;SDS011;56615;42.682;23.364;2023-02-01T15:54:04;8.25;;;4.10;;
36475;SDS011;56615;42.682;23.364;2023-02-01T15:56:36;7.45;;;3.40;;
36475;SDS011;56615;42.682;23.364;2023-02-01T15:59:05;6.55;;;3.75;;
36475;SDS011;56615;42.682;23.364;2023-02-01T16:01:36;7.97;;;3.95;;
36475;SDS011;56615;42.682;23.364;2023-02-01T16:04:24;11.25;;;4.10;;
36475;SDS011;56615;42.682;23.364;2023-02-01T16:06:50;9.07;;;3.38;;
36475;SDS011;56615;42.682;23.364;2023-02-01T16:09:21;7.53;;;3.42;;
36475;SDS011;56615;42.682;23.364;2023-02-01T16:14:24;6.18;;;3.10;;
36475;SDS011;56615;42.682;23.364;2023-02-01T16:16:51;8.23;;;2.95;;
36475;SDS011;56615;42.682;23.364;2023-02-01T16:19:17;6.68;;;3.22;;
36475;SDS011;56615;42.682;23.364;2023-02-01T16:21:43;8.45;;;3.40;;
36475;SDS011;56615;42.682;23.364;2023-02-01T16:24:08;6.35;;;2.70;;
36475;SDS011;56615;42.682;23.364;2023-02-01T16:26:34;5.72;;;2.90;;
36475;SDS011;56615;42.682;23.364;2023-02-01T16:29:00;9.52;;;3.50;;
36475;SDS011;56615;42.682;23.364;2023-02-01T16:31:29;12.88;;;4.13;;
36475;SDS011;56615;42.682;23.364;2023-02-01T16:33:56;7.43;;;3.40;;
36475;SDS011;56615;42.682;23.364;2023-02-01T16:36:21;6.18;;;3.03;;
36475;SDS011;56615;42.682;23.364;2023-02-01T16:38:47;7.70;;;3.38;;
36475;SDS011;56615;42.682;23.364;2023-02-01T16:41:15;6.43;;;2.60;;
36475;SDS011;56615;42.682;23.364;2023-02-01T16:43:42;8.18;;;2.85;;
36475;SDS011;56615;42.682;23.364;2023-02-01T16:46:12;7.18;;;3.00;;
36475;SDS011;56615;42.682;23.364;2023-02-01T16:48:40;7.40;;;2.85;;
36475;SDS011;56615;42.682;23.364;2023-02-01T16:51:10;11.00;;;3.30;;
36475;SDS011;56615;42.682;23.364;2023-02-01T16:53:38;8.90;;;2.80;;
36475;SDS011;56615;42.682;23.364;2023-02-01T16:56:13;6.78;;;2.63;;
36475;SDS011;56615;42.682;23.364;2023-02-01T16:58:41;6.07;;;2.80;;
36475;SDS011;56615;42.682;23.364;2023-02-01T17:01:08;8.02;;;2.55;;
36475;SDS011;56615;42.682;23.364;2023-02-01T17:03:38;6.47;;;2.83;;
36475;SDS011;56615;42.682;23.364;2023-02-01T17:06:04;9.50;;;3.05;;
36475;SDS011;56615;42.682;23.364;2023-02-01T17:08:37;8.57;;;3.08;;
36475;SDS011;56615;42.682;23.364;2023-02-01T17:11:06;10.85;;;3.42;;
36475;SDS011;56615;42.682;23.364;2023-02-01T17:13:32;5.72;;;3.10;;
36475;SDS011;56615;42.682;23.364;2023-02-01T17:16:00;9.60;;;3.58;;
36475;SDS011;56615;42.682;23.364;2023-02-01T17:18:27;11.55;;;3.17;;
36475;SDS011;56615;42.682;23.364;2023-02-01T17:20:56;6.88;;;3.20;;
36475;SDS011;56615;42.682;23.364;2023-02-01T17:23:22;8.93;;;3.70;;
36475;SDS011;56615;42.682;23.364;2023-02-01T17:25:48;6.75;;;3.20;;